• Join FlightAware (Why Join?)
  • Login
  • US Flag 
 
04:00AM EST


 

Airport Tracker/Info


-or-


 

Live Flight TrackerFlight Track Log ✈ N143DE ✈ 19-Jan-2014 ✈ KBTR - KBHM

Flight Track Log - Related Links

Times and Time Zones

All times are in EST time to prevent confusion due to time zone crossing. See the N143DE flight status page for this flight to view local times or setup timezone preferences in your user account.

Time Position Orientation Groundspeed Altitude Reporting Facility
EST Latitude Longitude Course Direction KTS MPH feet Rate Location/Type
05:22PM 30.5872 -91.1708 19° North 158 182 23,000  Level Houston Center
05:23PM 30.6167 -91.1378 44° Northeast 158 182 5,100 -7,920 Descending Houston Center
05:24PM 30.6428 -91.0942 55° Northeast 161 185 6,700 1,800 Climbing Houston Center
05:25PM 30.6822 -91.0433 48° Northeast 168 193 8,900 1,860 Climbing Houston Center
05:26PM 30.7181 -90.9989 47° Northeast 180 207 10,600 1,320 Climbing Houston Center
05:27PM 30.7907 -90.7950 19° North  Level Estimated
05:27PM 30.7553 -90.9517 47° Northeast 192 221 11,700  Level Houston Center
05:28PM 30.7967 -90.8986 48° Northeast 214 246 12,700 960 Climbing Houston Center
05:29PM 30.8392 -90.8472 46° Northeast 219 252 13,700 1,020 Climbing Houston Center
05:30PM 30.8794 -90.7950 48° Northeast 216 249 14,900 1,260 Climbing Houston Center
05:31PM 30.9264 -90.7367 47° Northeast 205 236 16,400 1,200 Climbing Houston Center
05:32PM 30.9639 -90.6867 49° Northeast 202 232 17,500 900 Climbing Houston Center
05:33PM 31.0031 -90.6369 47° Northeast 206 237 18,300 840 Climbing Houston Center
05:34PM 31.0436 -90.5881 46° Northeast 207 238 19,300 900 Climbing Houston Center
05:35PM 31.0819 -90.5383 48° Northeast 206 237 20,200 780 Climbing Houston Center
05:36PM 31.1217 -90.4903 46° Northeast 204 235 21,000 780 Climbing Houston Center
05:37PM 31.1683 -90.4292 48° Northeast 207 238 21,900 720 Climbing Houston Center
05:38PM 31.2092 -90.3783 47° Northeast 213 245 22,600 480 Climbing Houston Center
05:39PM 31.2500 -90.3269 47° Northeast 214 246 23,000 180 Climbing Houston Center
05:40PM 31.2956 -90.2692 47° Northeast 236 272 23,000  Level Houston Center
05:41PM 31.3428 -90.2067 48° Northeast 253 291 23,000  Level Houston Center
05:43PM 31.3917 -90.1428 48° Northeast 260 299 23,000  Level Houston Center
05:44PM 31.4408 -90.0778 48° Northeast 264 304 23,000  Level Houston Center
05:45PM 31.4994 -89.9986 49° Northeast 266 306 23,000  Level Houston Center
05:46PM 31.5472 -89.9333 49° Northeast 265 305 23,000  Level Houston Center
05:47PM 31.5958 -89.8692 48° Northeast 263 303 23,000  Level Houston Center
05:48PM 31.6442 -89.8033 49° Northeast 265 305 23,000  Level Houston Center
05:49PM 31.6922 -89.7367 50° Northeast 266 306 23,000  Level Houston Center
05:50PM 31.7417 -89.6731 48° Northeast 264 304 23,000  Level Houston Center
05:51PM 31.8003 -89.5922 50° Northeast 269 310 23,000  Level Houston Center
05:52PM 31.8506 -89.5219 50° Northeast 267 307 23,000  Level Houston Center
05:53PM 31.8978 -89.4597 48° Northeast 270 311 23,000  Level Memphis Center
05:54PM 31.9553 -89.3819 49° Northeast 267 307 23,000  Level Memphis Center
05:55PM 32.0039 -89.3161 49° Northeast 267 307 23,000  Level Memphis Center
05:56PM 32.0517 -89.2494 50° Northeast 268 308 23,000  Level Memphis Center
05:57PM 32.1000 -89.1844 49° Northeast 267 307 23,000  Level Memphis Center
05:58PM 32.1481 -89.1194 49° Northeast 266 306 23,000  Level Memphis Center
05:59PM 32.2053 -89.0403 49° Northeast 265 305 23,000  Level Memphis Center
06:00PM 32.2528 -88.9747 49° Northeast 266 306 23,000  Level Memphis Center
06:01PM 32.3022 -88.9086 48° Northeast 268 308 23,000  Level Memphis Center
06:02PM 32.3497 -88.8417 50° Northeast 268 308 23,000  Level Memphis Center
06:03PM 32.4067 -88.7617 50° Northeast 267 307 23,000  Level Memphis Center
06:04PM 32.4547 -88.6933 50° Northeast 270 311 23,000  Level Memphis Center
06:05PM 32.5022 -88.6250 50° Northeast 270 311 23,000  Level Memphis Center
06:06PM 32.5500 -88.5581 50° Northeast 270 311 23,000  Level Memphis Center
06:07PM 32.5956 -88.4906 51° Northeast 268 308 23,000  Level Memphis Center
06:08PM 32.6500 -88.4100 51° Northeast 265 305 23,000  Level Memphis Center
06:09PM 32.6975 -88.3428 50° Northeast 265 305 23,000  Level Memphis Center
06:11PM 32.7433 -88.2733 52° Northeast 268 308 23,000 -660 Level Memphis Center
06:12PM 32.7931 -88.2022 50° Northeast 277 319 21,700 -1,140 Descending Memphis Center
06:13PM 32.8472 -88.1250 50° Northeast 299 344 20,700 -960 Descending Memphis Center
06:14PM 32.8989 -88.0519 50° Northeast 294 338 19,800 -1,200 Descending Memphis Center
06:15PM 32.9592 -87.9611 52° Northeast 294 338 18,300 -1,200 Descending Memphis Center
06:16PM 33.0089 -87.8878 51° Northeast 296 341 17,400 -1,020 Descending Memphis Center
06:17PM 33.0611 -87.8144 50° Northeast 293 337 16,300 -1,080 Descending Memphis Center
06:18PM 33.1103 -87.7383 52° Northeast 290 334 15,200 -1,200 Descending Memphis Center
06:19PM 33.1689 -87.6522 51° Northeast 283 326 13,900 -1,140 Descending Memphis Center
06:20PM 33.2067 -87.5939 52° Northeast 288 331 13,200 -900 Descending Atlanta Center
06:20PM 33.2350 -87.5456 55° Northeast 275 316 12,600 -1,020 Descending Atlanta Center
06:21PM 33.2506 -87.5189 55° Northeast 278 320 12,200 -1,260 Descending Atlanta Center
06:21PM 33.2856 -87.4581 55° Northeast 270 311 11,200 -1,200 Descending Atlanta Center
06:22PM 33.2942 -87.4461 49° Northeast 278 320 11,000 -1,740 Descending Atlanta Center
06:23PM 33.3378 -87.3781 52° Northeast 267 307 9,200 -1,800 Descending Atlanta Center
06:23PM 33.3706 -87.3247 54° Northeast 265 305 7,900 -1,620 Descending Atlanta Center
06:24PM 33.3814 -87.3075 53° Northeast 262 302 7,600 -1,440 Descending Atlanta Center
06:25PM 33.4250 -87.2372 53° Northeast 262 302 6,100 -1,380 Descending Atlanta Center
06:25PM 33.4556 -87.1908 52° Northeast 248 285 5,200 -1,140 Descending Atlanta Center
06:26PM 33.4664 -87.1739 53° Northeast 257 296 5,000 -180 Descending Atlanta Center
06:26PM 33.4947 -87.1250 55° Northeast 228 262 5,000  Level Atlanta Center
06:27PM 33.5250 -87.0764 53° Northeast 201 231 5,000  Level Atlanta Center
06:28PM 33.5578 -87.0203 55° Northeast 199 229 5,000 -60 Level Atlanta Center
06:29PM 33.5903 -86.9664 54° Northeast 204 235 4,900 -480 Descending Atlanta Center
06:30PM 33.6253 -86.9078 54° Northeast 204 235 4,000 -480 Descending Atlanta Center
06:31PM 33.6556 -86.8639 50° Northeast 189 217 4,000 -360 Level Atlanta Center
06:32PM 33.6650 -86.8042 79° East 181 208 3,400 -420 Descending Atlanta Center
06:33PM 33.6747 -86.7522 77° East 165 190 3,200 -180 Descending Atlanta Center
06:34PM 33.6756 -86.7047 89° East 136 157 3,100 -60 Descending Atlanta Center
06:35PM 33.6578 -86.6642 118° Southeast 139 160 3,100 -300 Level Atlanta Center
06:36PM 33.6225 -86.6583 172° South 134 154 2,600 -600 Descending Atlanta Center
06:37PM 33.6031 -86.6900 234° Southwest 115 132 1,900 -660 Descending Atlanta Center
06:38PM 33.5814 -86.7242 233° Southwest 117 135 1,200 -660 Descending Atlanta Center